createdAt,value
2019-04-03T00:00:24.046Z,8.83
2019-04-03T00:02:55.047Z,9.30
2019-04-03T00:05:27.586Z,9.27
2019-04-03T00:07:58.256Z,9.47
2019-04-03T00:10:28.813Z,9.40
2019-04-03T00:13:00.168Z,9.53
2019-04-03T00:15:31.095Z,9.43
2019-04-03T00:18:02.593Z,9.87
2019-04-03T00:20:33.989Z,9.27
2019-04-03T00:23:04.859Z,10.00
2019-04-03T00:25:36.195Z,10.47
2019-04-03T00:28:07.164Z,10.27
2019-04-03T00:30:39.095Z,10.23
2019-04-03T00:33:10.120Z,10.00
2019-04-03T00:35:41.237Z,10.47
2019-04-03T00:38:12.038Z,10.00
2019-04-03T00:40:43.111Z,10.17
2019-04-03T00:43:14.015Z,10.40
2019-04-03T00:45:45.095Z,9.30
2019-04-03T00:48:16.307Z,9.17
2019-04-03T00:50:47.640Z,10.03
2019-04-03T00:53:18.474Z,9.83
2019-04-03T00:55:49.355Z,9.87
2019-04-03T00:58:42.224Z,10.07
2019-04-03T01:01:13.211Z,10.60
2019-04-03T01:03:44.103Z,10.27
2019-04-03T01:06:14.852Z,10.23
2019-04-03T01:08:47.201Z,11.20
2019-04-03T01:11:18.655Z,10.47
2019-04-03T01:13:49.803Z,10.20
2019-04-03T01:16:21.248Z,10.77
2019-04-03T01:18:52.108Z,11.40
2019-04-03T01:21:23.551Z,10.40
2019-04-03T01:23:54.047Z,10.83
2019-04-03T01:26:24.624Z,11.30
2019-04-03T01:28:55.095Z,10.73
2019-04-03T01:31:25.569Z,11.60
2019-04-03T01:33:56.027Z,10.60
2019-04-03T01:36:26.740Z,10.63
2019-04-03T01:38:57.556Z,10.47
2019-04-03T01:41:28.398Z,10.30
2019-04-03T01:44:00.593Z,11.13
2019-04-03T01:46:31.678Z,11.13
2019-04-03T01:49:02.784Z,10.20
2019-04-03T01:51:34.024Z,10.50
2019-04-03T01:54:05.073Z,10.57
2019-04-03T01:56:36.322Z,11.33
2019-04-03T01:59:07.729Z,11.07
2019-04-03T02:01:39.092Z,10.70
2019-04-03T02:04:13.030Z,11.83
2019-04-03T02:06:44.336Z,10.70
2019-04-03T02:09:16.344Z,11.17
2019-04-03T02:11:49.081Z,11.67
2019-04-03T02:14:21.649Z,10.87
2019-04-03T02:16:53.445Z,11.23
2019-04-03T02:19:26.113Z,11.57
2019-04-03T02:21:59.056Z,11.87
2019-04-03T02:24:31.857Z,12.30
2019-04-03T02:27:03.547Z,11.80
2019-04-03T02:29:35.221Z,11.90
2019-04-03T02:32:06.169Z,11.33
2019-04-03T02:34:36.983Z,11.90
2019-04-03T02:37:08.285Z,10.97
2019-04-03T02:39:39.108Z,11.93
2019-04-03T02:42:10.125Z,10.97
2019-04-03T02:44:40.788Z,11.67
2019-04-03T02:47:11.950Z,10.77
2019-04-03T02:49:43.796Z,11.40
2019-04-03T02:52:14.952Z,11.63
2019-04-03T02:54:46.090Z,11.77
2019-04-03T02:57:18.191Z,12.57
2019-04-03T02:59:49.212Z,11.50
2019-04-03T03:02:20.278Z,11.73
2019-04-03T03:04:53.729Z,12.10
2019-04-03T03:07:23.932Z,12.30
2019-04-03T03:09:55.325Z,12.57
2019-04-03T03:12:27.636Z,12.43
2019-04-03T03:14:59.540Z,11.23
2019-04-03T03:17:30.928Z,11.93
2019-04-03T03:20:06.966Z,12.00
2019-04-03T03:22:35.869Z,13.40
2019-04-03T03:25:07.152Z,12.90
2019-04-03T03:27:40.769Z,11.97
2019-04-03T03:30:30.919Z,11.80
2019-04-03T03:32:44.040Z,11.80
2019-04-03T03:35:20.513Z,11.93
2019-04-03T03:37:48.006Z,12.63
2019-04-03T03:40:19.560Z,11.73
2019-04-03T03:42:51.363Z,12.30
2019-04-03T03:45:22.626Z,12.10
2019-04-03T03:47:53.517Z,11.60
2019-04-03T03:50:26.142Z,12.37
2019-04-03T03:52:57.129Z,12.37
2019-04-03T03:55:28.664Z,12.53
2019-04-03T03:57:59.437Z,11.37
2019-04-03T04:00:30.922Z,11.20
2019-04-03T04:03:02.070Z,11.70
2019-04-03T04:05:33.090Z,11.33
2019-04-03T04:08:09.377Z,11.60
2019-04-03T04:10:37.292Z,11.23
2019-04-03T04:13:12.881Z,11.80
2019-04-03T04:15:40.465Z,11.83
2019-04-03T04:18:13.811Z,11.37
2019-04-03T04:20:44.448Z,11.13
2019-04-03T04:23:15.713Z,11.83
2019-04-03T04:25:46.813Z,11.20
2019-04-03T04:28:18.308Z,12.07
2019-04-03T04:30:49.334Z,11.87
2019-04-03T04:33:20.822Z,11.17
2019-04-03T04:35:52.836Z,11.13
2019-04-03T04:38:26.181Z,10.77
2019-04-03T04:40:56.964Z,11.53
2019-04-03T04:43:28.031Z,10.93
2019-04-03T04:45:59.400Z,10.10
2019-04-03T04:48:30.908Z,10.77
2019-04-03T04:51:02.540Z,10.27
2019-04-03T04:53:33.483Z,10.63
2019-04-03T04:56:06.497Z,10.80
2019-04-03T04:58:37.831Z,10.57
2019-04-03T05:01:08.531Z,10.57
2019-04-03T05:03:39.880Z,10.50
2019-04-03T05:06:10.741Z,11.13
2019-04-03T05:08:41.606Z,10.87
2019-04-03T05:11:12.071Z,11.50
2019-04-03T05:13:42.925Z,10.40
2019-04-03T05:16:14.067Z,10.23
2019-04-03T05:18:45.605Z,10.20
2019-04-03T05:21:17.701Z,10.30
2019-04-03T05:23:48.451Z,10.30
2019-04-03T05:26:21.563Z,9.70
2019-04-03T05:28:57.075Z,10.47
2019-04-03T05:31:25.349Z,9.73
2019-04-03T05:33:56.056Z,10.93
2019-04-03T05:36:27.065Z,11.70
2019-04-03T05:38:57.752Z,9.97
2019-04-03T05:41:28.715Z,10.23
2019-04-03T05:44:01.878Z,9.50
2019-04-03T05:46:32.454Z,9.60
2019-04-03T05:49:03.936Z,9.30
2019-04-03T05:51:34.848Z,9.03
2019-04-03T05:54:07.288Z,9.07
2019-04-03T05:56:38.579Z,9.43
2019-04-03T05:59:09.438Z,9.20
2019-04-03T06:01:42.667Z,10.63
2019-04-03T06:04:13.240Z,10.17
2019-04-03T06:06:47.098Z,9.43
2019-04-03T06:09:17.116Z,9.20
2019-04-03T06:11:48.527Z,9.23
2019-04-03T06:14:19.567Z,8.73
2019-04-03T06:16:52.003Z,9.50
2019-04-03T06:19:22.853Z,9.33
2019-04-03T06:21:53.959Z,10.10
2019-04-03T06:24:25.026Z,8.93
2019-04-03T06:26:56.619Z,9.00
2019-04-03T06:29:28.203Z,9.33
2019-04-03T06:31:59.614Z,9.63
2019-04-03T06:34:30.619Z,9.27
2019-04-03T06:37:01.723Z,9.27
2019-04-03T06:39:33.552Z,9.10
2019-04-03T06:42:04.668Z,7.93
2019-04-03T06:44:36.073Z,9.37
2019-04-03T06:47:07.620Z,8.30
2019-04-03T06:49:40.340Z,9.50
2019-04-03T06:52:11.167Z,9.67
2019-04-03T06:54:44.216Z,8.30
2019-04-03T06:57:14.611Z,8.47
2019-04-03T06:59:47.900Z,9.17
2019-04-03T07:02:18.420Z,9.03
2019-04-03T07:04:50.213Z,9.30
2019-04-03T07:07:32.640Z,7.93
2019-04-03T07:09:53.675Z,8.27
2019-04-03T07:12:24.976Z,8.50
2019-04-03T07:14:57.263Z,8.17
2019-04-03T07:17:29.776Z,8.43
2019-04-03T07:20:12.585Z,8.70
2019-04-03T07:22:34.095Z,9.07
2019-04-03T07:25:05.795Z,9.10
2019-04-03T07:27:37.462Z,8.43
2019-04-03T07:30:09.646Z,8.30
2019-04-03T07:32:41.159Z,8.73
2019-04-03T07:35:12.112Z,8.97
2019-04-03T07:37:43.754Z,10.87
2019-04-03T07:40:14.763Z,10.57
2019-04-03T07:42:46.236Z,8.87
2019-04-03T07:45:17.767Z,9.10
2019-04-03T07:47:48.815Z,9.07
2019-04-03T07:50:19.931Z,8.63
2019-04-03T07:52:51.059Z,8.13
2019-04-03T07:55:24.219Z,9.43
2019-04-03T07:57:57.722Z,9.27
2019-04-03T08:00:29.645Z,8.17
2019-04-03T08:03:00.332Z,8.20
2019-04-03T08:05:31.694Z,8.70
2019-04-03T08:08:03.005Z,8.77
2019-04-03T08:10:37.250Z,8.90
2019-04-03T08:13:07.907Z,9.40
2019-04-03T08:15:39.100Z,8.30
2019-04-03T08:18:10.714Z,9.23
2019-04-03T08:20:41.731Z,8.90
2019-04-03T08:23:12.832Z,8.97
2019-04-03T08:25:47.162Z,9.73
2019-04-03T08:28:16.968Z,10.13
2019-04-03T08:30:48.000Z,10.17
2019-04-03T08:33:25.550Z,9.50
2019-04-03T08:35:51.905Z,10.30
2019-04-03T08:38:22.838Z,10.07
2019-04-03T08:40:53.663Z,9.83
2019-04-03T08:43:24.547Z,10.07
2019-04-03T08:45:55.392Z,10.63
2019-04-03T08:48:26.488Z,10.53
2019-04-03T08:50:58.517Z,9.57
2019-04-03T08:53:30.019Z,10.53
2019-04-03T08:56:00.811Z,10.07
2019-04-03T08:58:32.581Z,9.93
2019-04-03T09:01:05.815Z,10.03
2019-04-03T09:03:36.991Z,9.87
2019-04-03T09:06:07.976Z,10.60
2019-04-03T09:08:38.921Z,11.23
2019-04-03T09:11:09.807Z,11.93
2019-04-03T09:13:40.977Z,11.90
2019-04-03T09:16:12.046Z,10.13
2019-04-03T09:18:43.075Z,12.17
2019-04-03T09:21:15.032Z,12.40
2019-04-03T09:23:47.856Z,12.43
2019-04-03T09:26:19.304Z,11.80
2019-04-03T09:28:49.957Z,11.10
2019-04-03T09:31:20.899Z,12.07
2019-04-03T09:33:51.687Z,12.00
2019-04-03T09:36:22.831Z,11.50
2019-04-03T09:38:54.328Z,12.30
2019-04-03T09:41:25.195Z,11.43
2019-04-03T09:43:56.171Z,11.77
2019-04-03T09:46:26.920Z,11.40
2019-04-03T09:48:57.620Z,12.33
2019-04-03T09:51:29.091Z,12.07
2019-04-03T09:54:01.158Z,11.77
2019-04-03T09:56:32.595Z,11.63
2019-04-03T09:59:06.677Z,11.53
2019-04-03T10:01:36.413Z,11.07
2019-04-03T10:04:07.948Z,11.50
2019-04-03T10:06:39.512Z,11.73
2019-04-03T10:09:12.113Z,11.27
2019-04-03T10:11:42.861Z,11.83
2019-04-03T10:14:14.259Z,11.13
2019-04-03T10:16:44.830Z,10.83
2019-04-03T10:19:16.033Z,12.13
2019-04-03T10:21:46.832Z,11.03
2019-04-03T10:24:18.136Z,11.60
2019-04-03T10:26:49.534Z,12.10
2019-04-03T10:29:20.219Z,12.53
2019-04-03T10:31:53.130Z,11.40
2019-04-03T10:34:24.116Z,11.53
2019-04-03T10:36:54.892Z,12.17
2019-04-03T10:39:26.660Z,11.77
2019-04-03T10:41:58.126Z,11.80
2019-04-03T10:44:30.885Z,12.63
2019-04-03T10:47:01.660Z,12.63
2019-04-03T10:49:33.080Z,12.80
2019-04-03T10:52:04.131Z,12.30
2019-04-03T10:54:37.872Z,12.30
2019-04-03T10:57:08.504Z,13.03
2019-04-03T10:59:39.455Z,11.97
2019-04-03T11:02:10.347Z,13.63
2019-04-03T11:04:41.183Z,13.03
2019-04-03T11:07:12.391Z,12.73
2019-04-03T11:09:43.333Z,12.63
2019-04-03T11:12:14.756Z,12.63
2019-04-03T11:14:46.016Z,12.37
2019-04-03T11:17:18.148Z,12.37
2019-04-03T11:19:48.995Z,11.77
2019-04-03T11:22:20.388Z,12.57
2019-04-03T11:24:52.006Z,12.70
2019-04-03T11:27:29.059Z,12.90
2019-04-03T11:29:56.482Z,12.83
2019-04-03T11:32:28.251Z,12.73
2019-04-03T11:34:59.663Z,12.87
2019-04-03T11:37:33.005Z,13.00
2019-04-03T11:40:05.617Z,13.10
2019-04-03T11:42:38.450Z,12.90
2019-04-03T11:45:10.656Z,13.90
2019-04-03T11:47:43.233Z,12.30
2019-04-03T11:50:15.007Z,12.37
2019-04-03T11:52:46.540Z,13.20
2019-04-03T11:55:17.851Z,12.53
2019-04-03T11:57:49.619Z,12.03
2019-04-03T12:00:25.469Z,12.27
2019-04-03T12:02:56.936Z,12.70
2019-04-03T12:05:28.549Z,13.13
2019-04-03T12:07:59.540Z,13.30
2019-04-03T12:10:32.655Z,11.73
2019-04-03T12:13:04.715Z,12.07
2019-04-03T12:15:35.928Z,11.63
2019-04-03T12:18:06.823Z,12.37
2019-04-03T12:20:43.741Z,12.07
2019-04-03T12:23:12.727Z,13.03
2019-04-03T12:25:44.055Z,13.40
2019-04-03T12:28:17.418Z,12.70
2019-04-03T12:30:47.387Z,13.77
2019-04-03T12:33:20.180Z,12.77
2019-04-03T12:35:51.754Z,13.30
2019-04-03T12:38:23.415Z,12.83
2019-04-03T12:40:54.622Z,13.03
2019-04-03T12:43:25.751Z,14.27
2019-04-03T12:45:58.832Z,12.30
2019-04-03T12:48:29.265Z,13.07
2019-04-03T12:51:00.548Z,13.60
2019-04-03T12:53:31.704Z,13.03
2019-04-03T12:56:02.907Z,13.03
2019-04-03T12:58:34.040Z,12.63
2019-04-03T13:01:07.116Z,12.60
2019-04-03T13:03:37.840Z,12.37
2019-04-03T13:06:10.936Z,13.17
2019-04-03T13:08:42.324Z,12.40
2019-04-03T13:11:13.431Z,13.00
2019-04-03T13:13:44.778Z,12.10
2019-04-03T13:16:15.833Z,11.80
2019-04-03T13:18:46.879Z,12.57
2019-04-03T13:21:18.481Z,11.73
2019-04-03T13:23:49.995Z,13.13
2019-04-03T13:26:24.080Z,12.37
2019-04-03T13:28:53.468Z,12.57
2019-04-03T13:31:25.206Z,12.00
2019-04-03T13:33:55.951Z,11.07
2019-04-03T13:36:26.766Z,13.03
2019-04-03T13:39:00.283Z,11.53
2019-04-03T13:41:33.310Z,12.40
2019-04-03T13:44:03.267Z,12.43
2019-04-03T13:46:36.578Z,12.40
2019-04-03T13:49:08.271Z,11.43
2019-04-03T13:51:39.576Z,12.10
2019-04-03T13:54:10.572Z,11.13
2019-04-03T13:56:43.101Z,11.43
2019-04-03T13:59:14.679Z,11.83
2019-04-03T14:01:45.532Z,11.37
2019-04-03T14:04:16.327Z,11.80
2019-04-03T14:06:47.298Z,11.63
2019-04-03T14:09:18.433Z,11.60
2019-04-03T14:11:49.527Z,11.43
2019-04-03T14:14:21.199Z,11.27
2019-04-03T14:16:52.505Z,11.57
2019-04-03T14:19:25.128Z,12.00
2019-04-03T14:21:58.780Z,12.03
2019-04-03T14:24:39.342Z,11.13
2019-04-03T14:27:03.312Z,11.87
2019-04-03T14:29:34.977Z,10.87
2019-04-03T14:32:05.967Z,11.30
2019-04-03T14:34:39.465Z,10.90
2019-04-03T14:37:09.674Z,10.93
2019-04-03T14:39:41.823Z,11.07
2019-04-03T14:42:12.982Z,10.80
2019-04-03T14:44:45.974Z,10.97
2019-04-03T14:47:17.056Z,10.50
2019-04-03T14:49:49.791Z,10.03
2019-04-03T14:52:20.692Z,10.33
2019-04-03T14:54:51.653Z,10.57
2019-04-03T14:57:23.935Z,10.27
2019-04-03T14:59:55.634Z,11.37
2019-04-03T15:02:26.818Z,10.13
2019-04-03T15:04:59.063Z,10.27
2019-04-03T15:07:29.955Z,10.83
2019-04-03T15:10:01.223Z,13.07
2019-04-03T15:12:32.373Z,10.23
2019-04-03T15:15:03.618Z,10.97
2019-04-03T15:17:37.245Z,10.50
2019-04-03T15:20:07.657Z,10.27
2019-04-03T15:22:39.315Z,10.70
2019-04-03T15:25:10.904Z,9.47
2019-04-03T15:27:41.918Z,10.67
2019-04-03T15:30:12.743Z,9.83
2019-04-03T15:32:44.618Z,9.60
2019-04-03T15:35:15.921Z,9.23
2019-04-03T15:37:46.852Z,9.10
2019-04-03T15:40:17.876Z,9.10
2019-04-03T15:42:49.583Z,9.97
2019-04-03T15:45:22.427Z,9.83
2019-04-03T15:47:56.391Z,10.60
2019-04-03T15:50:28.026Z,10.07
2019-04-03T15:53:00.170Z,10.37
2019-04-03T15:55:31.980Z,10.50
2019-04-03T15:58:02.876Z,9.97
2019-04-03T16:00:35.661Z,10.93
2019-04-03T16:03:06.548Z,10.67
2019-04-03T16:05:37.387Z,10.37
2019-04-03T16:08:11.697Z,9.93
2019-04-03T16:10:41.556Z,10.63
2019-04-03T16:13:15.022Z,10.53
2019-04-03T16:15:46.646Z,11.30
2019-04-03T16:18:20.007Z,9.90
2019-04-03T16:20:50.796Z,10.53
2019-04-03T16:23:21.791Z,9.43
2019-04-03T16:25:53.357Z,10.27
2019-04-03T16:28:26.479Z,9.93
2019-04-03T16:30:57.980Z,11.33
2019-04-03T16:33:29.006Z,10.20
2019-04-03T16:36:00.228Z,9.97
2019-04-03T16:38:31.349Z,8.83
2019-04-03T16:41:02.435Z,10.33
2019-04-03T16:43:33.453Z,10.47
2019-04-03T16:46:05.792Z,9.60
2019-04-03T16:48:39.802Z,10.40
2019-04-03T16:51:11.224Z,9.80
2019-04-03T16:53:42.379Z,10.03
2019-04-03T16:56:14.128Z,9.83
2019-04-03T16:58:45.355Z,9.70
2019-04-03T17:01:16.348Z,10.37
2019-04-03T17:03:48.048Z,9.77
2019-04-03T17:06:19.749Z,10.90
2019-04-03T17:08:50.787Z,10.80
2019-04-03T17:11:21.871Z,10.53
2019-04-03T17:13:52.895Z,10.10
2019-04-03T17:16:24.139Z,9.03
2019-04-03T17:18:55.327Z,10.30
2019-04-03T17:21:27.654Z,10.77
2019-04-03T17:23:59.543Z,10.70
2019-04-03T17:26:30.747Z,10.13
2019-04-03T17:29:05.190Z,9.60
2019-04-03T17:31:35.273Z,9.83
2019-04-03T17:34:07.539Z,8.67
2019-04-03T17:36:39.054Z,9.27
2019-04-03T17:39:10.327Z,9.50
2019-04-03T17:41:41.751Z,9.43
2019-04-03T17:44:13.981Z,8.90
2019-04-03T17:46:45.115Z,9.23
2019-04-03T17:49:16.140Z,8.97
2019-04-03T17:51:47.144Z,8.90
2019-04-03T17:54:18.220Z,9.00
2019-04-03T17:56:49.363Z,9.00
2019-04-03T17:59:20.075Z,9.00
2019-04-03T18:01:52.410Z,8.30
2019-04-03T18:04:23.887Z,9.50
2019-04-03T18:06:57.318Z,9.47
2019-04-03T18:09:28.094Z,8.97
2019-04-03T18:11:58.924Z,9.43
2019-04-03T18:14:31.236Z,9.13
2019-04-03T18:17:03.393Z,8.43
2019-04-03T18:19:37.591Z,8.83
2019-04-03T18:22:06.875Z,10.03
2019-04-03T18:24:38.011Z,9.40
2019-04-03T18:27:08.783Z,8.83
2019-04-03T18:29:40.183Z,9.70
2019-04-03T18:32:11.448Z,9.03
2019-04-03T18:34:42.463Z,9.20
2019-04-03T18:37:14.007Z,8.97
2019-04-03T18:39:45.191Z,9.53
2019-04-03T18:42:19.166Z,9.17
2019-04-03T18:44:50.299Z,9.70
2019-04-03T18:47:21.144Z,9.03
2019-04-03T18:49:52.166Z,9.70
2019-04-03T18:52:23.487Z,9.30
2019-04-03T18:54:54.259Z,9.27
2019-04-03T18:57:25.125Z,9.50
2019-04-03T18:59:56.482Z,8.97
2019-04-03T19:02:29.500Z,9.10
2019-04-03T19:05:02.391Z,9.40
2019-04-03T19:07:34.255Z,9.10
2019-04-03T19:10:07.374Z,9.37
2019-04-03T19:12:38.944Z,9.07
2019-04-03T19:15:10.412Z,9.93
2019-04-03T19:17:41.563Z,9.30
2019-04-03T19:20:12.727Z,8.73
2019-04-03T19:22:43.898Z,10.63
2019-04-03T19:25:14.751Z,9.00
2019-04-03T19:27:46.143Z,9.23
2019-04-03T19:30:17.259Z,10.03
2019-04-03T19:32:48.509Z,9.27
2019-04-03T19:35:20.149Z,10.20
2019-04-03T19:37:51.072Z,9.87
2019-04-03T19:40:22.203Z,9.53
2019-04-03T19:42:52.875Z,9.27
2019-04-03T19:45:23.957Z,10.10
2019-04-03T19:47:55.489Z,10.23
2019-04-03T19:50:26.523Z,10.07
2019-04-03T19:52:57.371Z,10.20
2019-04-03T19:55:28.696Z,10.27
2019-04-03T19:57:59.987Z,10.47
2019-04-03T20:00:33.042Z,10.30
2019-04-03T20:03:04.675Z,10.37
2019-04-03T20:05:35.567Z,10.00
2019-04-03T20:08:06.653Z,9.37
2019-04-03T20:10:38.075Z,10.20
2019-04-03T20:13:09.533Z,9.97
2019-04-03T20:15:40.668Z,9.40
2019-04-03T20:18:12.055Z,9.07
2019-04-03T20:20:43.372Z,11.20
2019-04-03T20:23:14.952Z,11.60
2019-04-03T20:25:45.999Z,10.30
2019-04-03T20:28:18.700Z,10.13
2019-04-03T20:30:49.645Z,11.13
2019-04-03T20:33:21.372Z,10.80
2019-04-03T20:35:52.283Z,10.03
2019-04-03T20:38:23.097Z,11.03
2019-04-03T20:40:54.200Z,10.40
2019-04-03T20:43:26.807Z,9.63
2019-04-03T20:45:58.395Z,10.30
2019-04-03T20:48:29.431Z,11.40
2019-04-03T20:51:00.447Z,10.93
2019-04-03T20:53:31.431Z,9.57
2019-04-03T20:56:02.896Z,12.33
2019-04-03T20:58:35.580Z,10.57
2019-04-03T21:01:07.199Z,10.23
2019-04-03T21:03:38.165Z,10.43
2019-04-03T21:06:09.267Z,11.17
2019-04-03T21:08:41.752Z,11.03
2019-04-03T21:11:12.925Z,9.93
2019-04-03T21:13:44.952Z,10.47
2019-04-03T21:16:16.925Z,9.60
2019-04-03T21:18:51.202Z,9.67
2019-04-03T21:21:21.468Z,10.53
2019-04-03T21:23:52.855Z,10.17
2019-04-03T21:26:24.351Z,10.73
2019-04-03T21:28:55.799Z,10.73
2019-04-03T21:31:26.709Z,10.67
2019-04-03T21:33:57.743Z,10.80
2019-04-03T21:36:28.587Z,10.90
2019-04-03T21:39:00.098Z,10.70
2019-04-03T21:41:31.516Z,11.00
2019-04-03T21:44:03.127Z,10.80
2019-04-03T21:46:34.105Z,10.97
2019-04-03T21:49:04.884Z,10.30
2019-04-03T21:51:35.799Z,10.90
2019-04-03T21:54:07.099Z,10.73
2019-04-03T21:56:38.111Z,11.17
2019-04-03T21:59:10.924Z,10.93
2019-04-03T22:01:42.176Z,10.67
2019-04-03T22:04:13.388Z,11.40
2019-04-03T22:06:44.809Z,11.33
2019-04-03T22:09:16.223Z,10.90
2019-04-03T22:11:47.060Z,10.83
2019-04-03T22:14:18.443Z,11.30
2019-04-03T22:16:50.876Z,11.20
2019-04-03T22:19:22.319Z,10.67
2019-04-03T22:21:53.224Z,10.87
2019-04-03T22:24:24.321Z,11.10
2019-04-03T22:26:55.811Z,10.97
2019-04-03T22:29:26.624Z,10.47
2019-04-03T22:31:57.940Z,10.27
2019-04-03T22:34:30.018Z,9.60
2019-04-03T22:37:03.774Z,10.30
2019-04-03T22:39:34.912Z,9.97
2019-04-03T22:42:06.080Z,10.47
2019-04-03T22:44:37.495Z,11.10
2019-04-03T22:47:08.980Z,12.37
2019-04-03T22:49:41.222Z,10.50
2019-04-03T22:52:12.151Z,11.33
2019-04-03T22:54:43.855Z,10.87
2019-04-03T22:57:15.668Z,10.53
2019-04-03T22:59:47.087Z,11.07
2019-04-03T23:02:17.876Z,9.40
2019-04-03T23:04:48.767Z,11.10
2019-04-03T23:07:20.863Z,10.87
2019-04-03T23:09:52.908Z,10.70
2019-04-03T23:12:23.754Z,11.43
2019-04-03T23:14:55.184Z,10.67
2019-04-03T23:17:26.322Z,10.03
2019-04-03T23:19:57.763Z,11.13
2019-04-03T23:22:28.632Z,11.03
2019-04-03T23:25:00.157Z,9.93
2019-04-03T23:27:32.889Z,10.50
2019-04-03T23:30:04.152Z,12.53
2019-04-03T23:32:35.104Z,10.87
2019-04-03T23:35:06.134Z,10.00
2019-04-03T23:37:38.571Z,11.27
2019-04-03T23:40:09.396Z,10.80
2019-04-03T23:42:40.559Z,11.30
2019-04-03T23:45:12.866Z,11.07
2019-04-03T23:47:46.705Z,12.27
2019-04-03T23:50:16.392Z,10.80
2019-04-03T23:52:47.831Z,11.63
2019-04-03T23:55:19.251Z,11.93
2019-04-03T23:57:50.841Z,12.13
